Latest Weather Observations for Campbelltown

IDN60901

Issued at 8:45 pm EDT Monday 22 December 2014 (issued every 10 minutes, with the page automatically refreshed every 10 minutes)

About weather observations | Map of Sydney area stations | Latest observations for Sydney area | Other Formats
Station Details ID: 068257 Name: CAMPBELLTOWN (MOUNT ANNAN) Lat: -34.06 Lon: 150.77 Height: 112.0 m
Data from the previous 72 hours. | See also: Recent months at Campbelltown
Date/Time
EDT
Tmp

°C
App
Tmp
°C
Dew
Point
°C
Rel
Hum
%
Delta-T

°C
Wind Press
QNH
hPa
Press
MSL
hPa
Rain
since
9 am
mm
Dir
 
Spd
km/h
Gust
km/h
Spd
kts
Gust
kts
22/08:30pm 21.7 23.1 17.7 78 2.5 ENE 7 13 4 7 - - 0.0
22/08:00pm 22.1 22.8 17.9 77 2.6 NE 11 20 6 11 - - 0.0
22/07:30pm 22.4 23.3 18.4 78 2.5 ENE 11 19 6 10 - - 0.0
22/07:00pm 22.7 24.7 16.9 70 3.6 N 2 7 1 4 - - 0.0
22/06:30pm 21.8 23.4 17.8 78 2.5 SSW 6 9 3 5 - - 0.0
22/05:30pm 22.2 20.5 15.8 67 3.9 N 19 32 10 17 - - 0.0
22/05:00pm 24.6 22.5 16.1 59 5.2 NNE 22 44 12 24 - - 0.0
22/04:54pm 25.7 23.0 15.7 54 6.1 NE 24 44 13 24 - - 0.0
22/04:30pm 27.1 25.9 16.1 51 6.8 NE 17 28 9 15 - - 0.0
22/04:00pm 28.4 27.3 17.3 51 7.0 ENE 19 26 10 14 - - 0.0
22/03:30pm 28.0 27.0 15.6 46 7.6 ENE 15 28 8 15 - - 0.0
22/03:00pm 28.1 26.9 16.1 48 7.4 E 17 26 9 14 - - 0.0
22/02:30pm 30.1 29.3 17.2 46 8.2 ENE 17 24 9 13 - - 0.0
22/02:00pm 29.7 29.2 16.8 45 8.1 ENE 15 26 8 14 - - 0.0
22/01:30pm 30.7 30.2 15.9 40 9.2 NE 13 22 7 12 - - 0.0
22/01:00pm 31.4 30.3 15.4 38 9.9 NE 15 22 8 12 - - 0.0
22/12:30pm 29.7 29.3 16.1 43 8.5 NE 13 24 7 13 - - 0.0
22/11:30am 27.6 28.1 17.5 54 6.4 NNE 11 20 6 11 - - 0.0
22/11:00am 26.1 26.5 17.2 58 5.6 NNE 11 15 6 8 - - 0.0
22/10:30am 25.2 26.7 18.9 68 4.0 N 9 15 5 8 - - 0.0
22/10:00am 24.1 25.0 17.6 67 4.1 NNE 9 15 5 8 - - 0.0
22/09:30am 23.6 25.1 18.0 71 3.5 N 7 11 4 6 - - 0.0
22/09:00am 22.6 24.0 17.9 75 2.9 N 7 13 4 7 - - 0.0
22/08:30am 21.6 23.4 18.2 81 2.1 NNW 6 9 3 5 - - 0.0
22/08:00am 20.6 23.2 18.5 88 1.3 ENE 2 7 1 4 - - 0.0
22/07:30am 19.5 22.9 19.3 99 0.1 CALM 0 0 0 0 - - 0.0
22/07:00am 18.3 21.2 18.1 99 0.1 CALM 0 0 0 0 - - 0.0
22/06:30am 16.8 19.0 16.6 99 0.1 CALM 0 0 0 0 - - 0.0
22/05:30am 16.0 17.9 15.7 98 0.2 CALM 0 0 0 0 - - 0.0
22/05:00am 16.4 17.3 16.1 98 0.2 ENE 6 9 3 5 - - 0.0
22/03:30am 17.9 19.6 17.1 95 0.5 ENE 4 6 2 3 - - 0.0
22/03:00am 18.1 19.8 17.1 94 0.6 ENE 4 7 2 4 - - 0.0
22/02:30am 18.2 20.8 17.4 95 0.5 CALM 0 0 0 0 - - 0.0
22/02:00am 17.9 20.4 17.3 96 0.4 CALM 0 0 0 0 - - 0.0
22/01:30am 17.8 19.7 16.8 94 0.6 ENE 2 6 1 3 - - 0.0
22/01:00am 17.6 19.6 16.1 91 0.9 CALM 0 0 0 0 - - 0.0
22/12:30am 18.5 20.8 16.7 89 1.1 CALM 0 0 0 0 - - 0.0
 
Date/Time
EDT
Tmp

°C
App
Tmp
°C
Dew
Point
°C
Rel
Hum
%
Delta-T

°C
Wind Press
QNH
hPa
Press
MSL
hPa
Rain
since
9 am
mm
Dir
 
Spd
km/h
Gust
km/h
Spd
kts
Gust
kts
21/11:30pm 19.6 21.3 17.2 86 1.5 NE 4 6 2 3 - - 0.0
21/11:00pm 19.9 21.2 17.1 84 1.7 NE 6 9 3 5 - - 0.0
21/10:30pm 20.5 21.7 17.3 82 2.0 NE 7 11 4 6 - - 0.0
21/10:00pm 20.7 21.4 17.1 80 2.2 NE 9 15 5 8 - - 0.0
21/09:30pm 21.0 21.8 17.2 79 2.3 ENE 9 13 5 7 - - 0.0
21/09:00pm 21.6 22.4 17.2 76 2.7 ENE 9 15 5 8 - - 0.0
21/08:30pm 21.8 22.1 17.0 74 2.9 ENE 11 19 6 10 - - 0.0
21/08:00pm 22.3 22.8 16.6 70 3.5 ENE 9 17 5 9 - - 0.0
21/07:30pm 23.1 22.8 16.4 66 4.1 NE 13 26 7 14 - - 0.0
21/07:00pm 24.4 24.3 16.1 60 5.1 ENE 11 22 6 12 - - 0.0
21/06:30pm 25.0 24.5 15.9 57 5.6 ENE 13 22 7 12 - - 0.0
21/06:00pm 26.1 25.7 16.1 54 6.2 ENE 13 24 7 13 - - 0.0
21/05:30pm 27.0 26.5 16.9 54 6.3 E 15 24 8 13 - - 0.0
21/05:00pm 26.9 26.1 16.2 52 6.6 ENE 15 30 8 16 - - 0.0
21/04:30pm 28.0 27.4 16.6 50 7.1 NE 15 24 8 13 - - 0.0
21/04:00pm 28.3 27.0 15.9 47 7.7 NE 17 24 9 13 - - 0.0
21/03:30pm 28.6 27.3 15.8 45 7.9 NNE 17 26 9 14 - - 0.0
21/03:00pm 28.1 26.6 15.4 46 7.8 NE 17 24 9 13 - - 0.0
21/02:30pm 29.0 28.0 15.5 44 8.3 NNE 15 24 8 13 - - 0.0
21/02:00pm 28.5 27.0 14.3 41 8.6 NE 15 20 8 11 - - 0.0
21/01:30pm 27.4 25.6 14.4 45 7.8 NNE 17 26 9 14 - - 0.0
21/01:00pm 27.3 26.3 14.7 46 7.6 NE 13 22 7 12 - - 0.0
21/12:30pm 26.6 26.2 15.3 50 6.9 NE 11 22 6 12 - - 0.0
21/12:00pm 25.6 24.7 13.8 48 7.0 NE 11 17 6 9 - - 0.0
21/11:30am 24.8 23.6 15.1 54 5.8 N 15 20 8 11 - - 0.0
21/11:00am 23.1 21.7 14.4 58 5.1 N 15 30 8 16 - - 0.0
21/10:30am 22.7 21.8 14.8 61 4.7 N 13 19 7 10 - - 0.0
21/10:00am 23.0 22.2 15.1 61 4.7 NNW 13 20 7 11 - - 0.0
21/09:30am 22.2 22.2 15.3 65 4.1 NNE 9 15 5 8 - - 0.0
21/09:00am 21.1 20.8 14.5 66 3.9 N 9 15 5 8 - - 0.0
21/08:30am 20.3 20.5 14.2 68 3.6 WSW 6 9 3 5 - - 0.0
21/08:00am 18.5 18.9 13.8 74 2.7 SW 4 9 2 5 - - 0.0
21/07:30am 17.1 18.6 14.6 85 1.4 CALM 0 0 0 0 - - 0.0
21/07:00am 14.9 16.4 14.6 98 0.2 CALM 0 0 0 0 - - 0.0
21/06:30am 13.2 14.1 13.0 99 0.1 CALM 0 0 0 0 - - 0.0
21/06:00am 12.2 12.8 11.9 98 0.2 CALM 0 0 0 0 - - 0.0
21/05:30am 12.0 12.5 11.5 97 0.3 CALM 0 0 0 0 - - 0.0
21/05:00am 12.2 12.7 11.7 97 0.3 CALM 0 0 0 0 - - 0.0
21/04:30am 12.5 13.1 12.0 97 0.3 CALM 0 0 0 0 - - 0.0
21/04:00am 12.6 13.2 12.0 96 0.3 CALM 0 0 0 0 - - 0.0
21/03:30am 12.8 13.4 11.9 94 0.5 CALM 0 0 0 0 - - 0.0
21/03:00am 13.3 14.1 12.4 94 0.5 CALM 0 0 0 0 - - 0.0
21/02:30am 13.6 14.4 12.5 93 0.6 CALM 0 0 0 0 - - 0.0
21/02:00am 13.7 14.5 12.4 92 0.7 CALM 0 0 0 0 - - 0.0
21/01:30am 13.9 14.6 12.3 90 0.9 CALM 0 0 0 0 - - 0.0
21/01:00am 14.5 15.3 12.5 88 1.1 CALM 0 0 0 0 - - 0.0
21/12:30am 14.8 15.6 12.7 87 1.2 CALM 0 0 0 0 - - 0.0
21/12:00am 14.9 15.7 12.6 86 1.3 CALM 0 0 0 0 - - 0.0
 
Date/Time
EDT
Tmp

°C
App
Tmp
°C
Dew
Point
°C
Rel
Hum
%
Delta-T

°C
Wind Press
QNH
hPa
Press
MSL
hPa
Rain
since
9 am
mm
Dir
 
Spd
km/h
Gust
km/h
Spd
kts
Gust
kts
20/11:30pm 15.1 16.0 12.8 86 1.3 CALM 0 6 0 3 - - 0.0
20/11:00pm 15.0 15.7 12.1 83 1.6 CALM 0 0 0 0 - - 0.0
20/10:30pm 15.7 16.4 12.3 80 1.9 CALM 0 0 0 0 - - 0.0
20/10:00pm 16.8 16.8 12.5 76 2.4 ESE 4 7 2 4 - - 0.0
20/09:30pm 17.5 17.8 12.2 71 2.9 ESE 2 7 1 4 - - 0.0
20/09:00pm 18.1 17.6 12.1 68 3.3 E 6 11 3 6 - - 0.0
20/08:30pm 18.7 17.6 12.0 65 3.7 ESE 9 15 5 8 - - 0.0
20/08:00pm 19.2 18.4 11.7 62 4.2 ENE 7 11 4 6 - - 0.0
20/07:30pm 20.2 18.9 11.4 57 4.9 ENE 9 15 5 8 - - 0.0
20/07:00pm 21.3 19.6 11.3 53 5.6 ENE 11 19 6 10 - - 0.0
20/06:30pm 21.9 20.2 11.3 51 5.9 ENE 11 19 6 10 - - 0.0
20/06:00pm 22.5 20.2 11.9 51 6.0 ESE 15 26 8 14 - - 0.0
20/05:30pm 22.8 20.4 11.5 49 6.4 E 15 24 8 13 - - 0.0
20/05:00pm 23.3 20.9 11.4 47 6.7 E 15 28 8 15 - - 0.0
20/04:30pm 24.7 22.5 12.0 45 7.3 ENE 15 24 8 13 - - 0.0
20/04:00pm 24.8 22.9 11.7 44 7.5 NE 13 32 7 17 - - 0.0
20/03:30pm 25.2 23.0 12.1 44 7.5 ENE 15 24 8 13 - - 0.0
20/03:00pm 25.9 23.8 11.3 40 8.3 ENE 13 24 7 13 - - 0.0
20/02:30pm 25.0 23.0 8.5 35 8.9 N 9 15 5 8 - - 0.0
20/02:00pm 24.3 22.2 8.3 36 8.6 NNW 9 19 5 10 - - 0.0
20/01:30pm 23.9 22.0 9.1 39 8.0 NE 9 15 5 8 - - 0.0
20/01:00pm 24.6 22.7 10.5 41 7.9 N 11 20 6 11 - - 0.0
20/12:30pm 23.3 20.6 10.4 44 7.1 NNW 15 24 8 13 - - 0.0
20/12:00pm 23.0 20.6 10.1 44 7.1 N 13 20 7 11 - - 0.0
20/11:30am 22.8 20.4 9.9 44 7.1 NNW 13 22 7 12 - - 0.0
20/11:00am 21.4 19.1 10.3 49 6.1 NNE 13 17 7 9 - - 0.0
20/10:30am 21.4 19.6 10.9 51 5.8 N 11 20 6 11 - - 0.0
20/10:00am 20.4 19.1 11.1 55 5.1 N 9 13 5 7 - - 0.0
20/09:30am 19.0 18.1 10.8 59 4.5 N 6 11 3 6 - - 0.0
20/09:00am 18.5 17.6 10.6 60 4.3 N 6 9 3 5 - - 0.0
20/08:30am 18.3 18.4 11.6 65 3.7 ENE 2 7 1 4 - - 0.0
20/08:00am 18.0 17.4 11.8 67 3.4 S 6 9 3 5 - - 0.0
20/07:30am 17.6 17.7 12.7 73 2.7 S 4 9 2 5 - - 0.0
20/07:00am 16.1 16.7 13.0 82 1.7 S 2 7 1 4 - - 0.0
20/06:30am 15.1 16.0 13.0 87 1.2 CALM 0 0 0 0 - - 0.0
20/06:00am 14.6 14.7 12.6 88 1.1 S 4 6 2 3 - - 0.0
20/05:30am 14.3 13.7 11.8 85 1.4 S 6 6 3 3 - - 0.0
20/05:00am 14.7 14.4 11.5 81 1.7 S 4 6 2 3 - - 0.0
20/04:30am 15.6 15.4 11.8 78 2.1 S 4 7 2 4 - - 0.0
20/04:00am 15.6 16.2 11.8 78 2.1 CALM 0 0 0 0 - - 0.0
20/03:30am 15.7 15.0 11.3 75 2.4 S 6 7 3 4 - - 0.0
20/03:00am 16.2 15.9 11.6 74 2.5 S 4 9 2 5 - - 0.0
20/02:30am 16.1 16.5 11.3 73 2.6 CALM 0 0 0 0 - - 0.0
20/02:00am 16.4 16.7 10.9 70 3.0 CALM 0 0 0 0 - - 0.0
20/01:30am 16.7 16.2 10.8 68 3.2 SSE 4 6 2 3 - - 0.0
20/01:00am 17.0 17.2 10.4 65 3.5 CALM 0 2 0 1 - - 0.0
20/12:30am 17.2 16.3 10.6 65 3.5 SE 6 13 3 7 - - 0.0
20/12:00am 17.2 17.4 10.6 65 3.5 CALM 0 6 0 3 - - 0.0
 
Date/Time
EDT
Tmp

°C
App
Tmp
°C
Dew
Point
°C
Rel
Hum
%
Delta-T

°C
Wind Press
QNH
hPa
Press
MSL
hPa
Rain
since
9 am
mm
Dir
 
Spd
km/h
Gust
km/h
Spd
kts
Gust
kts
19/11:30pm 17.3 16.3 10.2 63 3.8 S 6 7 3 4 - - 0.0
19/11:00pm 17.6 16.3 10.0 61 4.0 SSE 7 13 4 7 - - 0.0
19/10:30pm 17.5 16.4 10.1 62 3.9 SSE 6 9 3 5 - - 0.0
19/10:00pm 17.7 16.5 10.3 62 4.0 SE 7 11 4 6 - - 0.0
19/09:30pm 17.6 17.3 10.2 62 4.0 SSE 2 6 1 3 - - 0.0
19/09:00pm 17.8 16.7 9.9 60 4.2 SE 6 13 3 7 - - 0.0

Latest Capital City Observations: Canberra | Sydney | Melbourne | Brisbane | Adelaide | Perth | Hobart | Darwin

Other Formats:

Comma delimited format used in spreadsheet applications
http://www.bom.gov.au/fwo/IDN60901/IDN60901.94757.axf

JavaScript Object Notation format (JSON) in row-major order
http://www.bom.gov.au/fwo/IDN60901/IDN60901.94757.json